createdAt,value
2018-07-04T00:00:54.523Z,1010.93
2018-07-04T00:01:54.481Z,1010.92
2018-07-04T00:02:54.439Z,1010.94
2018-07-04T00:03:54.398Z,1010.93
2018-07-04T00:04:54.356Z,1010.97
2018-07-04T00:05:54.314Z,1010.97
2018-07-04T00:06:54.275Z,1010.97
2018-07-04T00:07:54.231Z,1010.97
2018-07-04T00:08:54.188Z,1011.00
2018-07-04T00:09:54.146Z,1010.99
2018-07-04T00:10:54.105Z,1011.00
2018-07-04T00:11:54.066Z,1010.97
2018-07-04T00:12:54.021Z,1010.96
2018-07-04T00:13:53.982Z,1010.95
2018-07-04T00:14:53.938Z,1010.93
2018-07-04T00:15:53.896Z,1010.91
2018-07-04T00:16:53.860Z,1010.92
2018-07-04T00:17:53.812Z,1010.92
2018-07-04T00:18:53.771Z,1010.92
2018-07-04T00:19:53.730Z,1010.94
2018-07-04T00:20:53.686Z,1010.96
2018-07-04T00:21:53.645Z,1010.93
2018-07-04T00:22:53.606Z,1010.94
2018-07-04T00:23:53.561Z,1010.92
2018-07-04T00:24:53.518Z,1010.91
2018-07-04T00:25:53.477Z,1010.91
2018-07-04T00:26:53.435Z,1010.90
2018-07-04T00:27:53.394Z,1010.90
2018-07-04T00:28:53.351Z,1010.90
2018-07-04T00:29:53.309Z,1010.90
2018-07-04T00:30:53.268Z,1010.90
2018-07-04T00:31:53.226Z,1010.90
2018-07-04T00:32:53.385Z,1010.88
2018-07-04T00:34:53.100Z,1010.91
2018-07-04T00:35:53.058Z,1010.91
2018-07-04T00:36:53.016Z,1010.92
2018-07-04T00:37:52.974Z,1010.92
2018-07-04T00:38:52.932Z,1010.94
2018-07-04T00:39:52.891Z,1010.97
2018-07-04T00:40:52.848Z,1010.98
2018-07-04T00:41:52.806Z,1010.95
2018-07-04T00:42:52.765Z,1010.99
2018-07-04T00:43:52.723Z,1010.98
2018-07-04T00:44:52.680Z,1011.00
2018-07-04T00:45:52.638Z,1010.99
2018-07-04T00:46:52.597Z,1010.99
2018-07-04T00:47:52.555Z,1011.02
2018-07-04T00:48:52.512Z,1011.01
2018-07-04T00:49:52.470Z,1010.99
2018-07-04T00:50:52.432Z,1011.02
2018-07-04T00:51:52.387Z,1011.02
2018-07-04T00:52:52.347Z,1011.02
2018-07-04T00:53:52.304Z,1011.03
2018-07-04T00:54:52.267Z,1011.01
2018-07-04T00:55:52.219Z,1010.95
2018-07-04T00:56:52.177Z,1010.93
2018-07-04T00:57:52.135Z,1010.95
2018-07-04T00:58:52.093Z,1010.93
2018-07-04T00:59:52.052Z,1010.91
2018-07-04T01:00:52.009Z,1010.92
2018-07-04T01:01:51.968Z,1010.91
2018-07-04T01:02:51.924Z,1010.87
2018-07-04T01:03:51.884Z,1010.87
2018-07-04T01:04:51.841Z,1010.83
2018-07-04T01:05:51.801Z,1010.85
2018-07-04T01:06:51.757Z,1010.84
2018-07-04T01:07:51.716Z,1010.86
2018-07-04T01:08:51.673Z,1010.90
2018-07-04T01:09:51.631Z,1010.85
2018-07-04T01:10:51.589Z,1010.87
2018-07-04T01:11:51.548Z,1010.86
2018-07-04T01:12:51.506Z,1010.86
2018-07-04T01:13:51.463Z,1010.86
2018-07-04T01:14:51.421Z,1010.82
2018-07-04T01:15:51.380Z,1010.80
2018-07-04T01:16:51.337Z,1010.83
2018-07-04T01:17:51.295Z,1010.80
2018-07-04T01:18:51.260Z,1010.80
2018-07-04T01:19:51.211Z,1010.80
2018-07-04T01:20:51.219Z,1010.82
2018-07-04T01:21:51.127Z,1010.82
2018-07-04T01:22:51.084Z,1010.83
2018-07-04T01:23:51.049Z,1010.84
2018-07-04T01:24:51.000Z,1010.81
2018-07-04T01:25:50.958Z,1010.84
2018-07-04T01:27:51.077Z,1010.77
2018-07-04T01:28:50.832Z,1010.76
2018-07-04T01:29:50.790Z,1010.78
2018-07-04T01:30:50.750Z,1010.77
2018-07-04T01:31:50.705Z,1010.81
2018-07-04T01:32:50.664Z,1010.78
2018-07-04T01:33:50.624Z,1010.76
2018-07-04T01:34:50.580Z,1010.78
2018-07-04T01:35:50.538Z,1010.79
2018-07-04T01:36:50.496Z,1010.75
2018-07-04T01:37:50.453Z,1010.77
2018-07-04T01:38:50.411Z,1010.73
2018-07-04T01:39:50.372Z,1010.74
2018-07-04T01:40:50.333Z,1010.73
2018-07-04T01:41:50.285Z,1010.75
2018-07-04T01:42:50.243Z,1010.76
2018-07-04T01:43:50.203Z,1010.74
2018-07-04T01:44:50.158Z,1010.74
2018-07-04T01:45:50.117Z,1010.74
2018-07-04T01:46:50.081Z,1010.74
2018-07-04T01:47:50.033Z,1010.72
2018-07-04T01:48:49.993Z,1010.74
2018-07-04T01:49:49.952Z,1010.69
2018-07-04T01:50:49.907Z,1010.76
2018-07-04T01:51:49.867Z,1010.75
2018-07-04T01:52:49.824Z,1010.71
2018-07-04T01:53:49.780Z,1010.73
2018-07-04T01:54:49.740Z,1010.68
2018-07-04T01:55:49.696Z,1010.69
2018-07-04T01:56:49.654Z,1010.69
2018-07-04T01:57:49.611Z,1010.70
2018-07-04T01:58:49.569Z,1010.66
2018-07-04T01:59:49.528Z,1010.63
2018-07-04T02:00:49.488Z,1010.62
2018-07-04T02:01:49.445Z,1010.64
2018-07-04T02:02:49.401Z,1010.59
2018-07-04T02:03:49.359Z,1010.62
2018-07-04T02:04:49.316Z,1010.60
2018-07-04T02:05:49.275Z,1010.61
2018-07-04T02:06:49.232Z,1010.53
2018-07-04T02:07:49.190Z,1010.58
2018-07-04T02:08:49.147Z,1010.57
2018-07-04T02:09:49.105Z,1010.58
2018-07-04T02:10:49.064Z,1010.58
2018-07-04T02:11:49.022Z,1010.58
2018-07-04T02:12:48.978Z,1010.60
2018-07-04T02:13:48.937Z,1010.60
2018-07-04T02:14:48.895Z,1010.56
2018-07-04T02:15:48.853Z,1010.62
2018-07-04T02:16:48.811Z,1010.56
2018-07-04T02:17:48.770Z,1010.55
2018-07-04T02:18:48.726Z,1010.55
2018-07-04T02:19:48.684Z,1010.55
2018-07-04T02:20:48.642Z,1010.58
2018-07-04T02:21:48.601Z,1010.58
2018-07-04T02:22:48.557Z,1010.60
2018-07-04T02:23:48.515Z,1010.59
2018-07-04T02:24:48.472Z,1010.60
2018-07-04T02:25:48.430Z,1010.60
2018-07-04T02:26:48.388Z,1010.58
2018-07-04T02:27:48.346Z,1010.61
2018-07-04T02:28:48.303Z,1010.59
2018-07-04T02:29:48.261Z,1010.61
2018-07-04T02:30:48.219Z,1010.65
2018-07-04T02:31:48.177Z,1010.66
2018-07-04T02:32:48.134Z,1010.66
2018-07-04T02:33:48.092Z,1010.68
2018-07-04T02:34:48.050Z,1010.66
2018-07-04T02:35:48.010Z,1010.68
2018-07-04T02:36:47.966Z,1010.68
2018-07-04T02:37:47.928Z,1010.67
2018-07-04T02:38:47.882Z,1010.69
2018-07-04T02:39:47.846Z,1010.71
2018-07-04T02:40:47.796Z,1010.67
2018-07-04T02:41:47.755Z,1010.70
2018-07-04T02:42:47.712Z,1010.71
2018-07-04T02:43:47.671Z,1010.70
2018-07-04T02:44:47.701Z,1010.70
2018-07-04T02:45:47.586Z,1010.70
2018-07-04T02:46:47.550Z,1010.72
2018-07-04T02:47:47.502Z,1010.70
2018-07-04T02:48:47.458Z,1010.67
2018-07-04T02:50:47.388Z,1010.69
2018-07-04T02:51:47.332Z,1010.68
2018-07-04T02:52:47.290Z,1010.66
2018-07-04T02:53:47.247Z,1010.65
2018-07-04T02:54:47.205Z,1010.66
2018-07-04T02:55:47.164Z,1010.66
2018-07-04T02:56:47.120Z,1010.64
2018-07-04T02:57:47.078Z,1010.63
2018-07-04T02:58:47.035Z,1010.63
2018-07-04T02:59:46.994Z,1010.61
2018-07-04T03:00:46.951Z,1010.60
2018-07-04T03:01:46.908Z,1010.60
2018-07-04T03:02:46.868Z,1010.59
2018-07-04T03:03:46.828Z,1010.56
2018-07-04T03:04:46.781Z,1010.60
2018-07-04T03:05:46.742Z,1010.62
2018-07-04T03:06:46.797Z,1010.63
2018-07-04T03:07:46.655Z,1010.63
2018-07-04T03:08:46.612Z,1010.63
2018-07-04T03:09:46.570Z,1010.66
2018-07-04T03:10:46.528Z,1010.68
2018-07-04T03:11:46.490Z,1010.70
2018-07-04T03:12:46.442Z,1010.67
2018-07-04T03:13:46.400Z,1010.66
2018-07-04T03:14:46.360Z,1010.67
2018-07-04T03:15:46.316Z,1010.63
2018-07-04T03:16:46.274Z,1010.64
2018-07-04T03:17:46.232Z,1010.66
2018-07-04T03:18:46.189Z,1010.63
2018-07-04T03:19:46.151Z,1010.63
2018-07-04T03:20:46.104Z,1010.63
2018-07-04T03:21:46.062Z,1010.64
2018-07-04T03:22:46.020Z,1010.65
2018-07-04T03:23:45.978Z,1010.66
2018-07-04T03:24:45.937Z,1010.64
2018-07-04T03:25:45.892Z,1010.66
2018-07-04T03:26:45.850Z,1010.70
2018-07-04T03:27:45.808Z,1010.68
2018-07-04T03:28:45.765Z,1010.72
2018-07-04T03:29:45.722Z,1010.67
2018-07-04T03:30:45.682Z,1010.66
2018-07-04T03:31:45.643Z,1010.67
2018-07-04T03:32:45.598Z,1010.67
2018-07-04T03:33:45.603Z,1010.67
2018-07-04T03:34:45.511Z,1010.62
2018-07-04T03:35:45.469Z,1010.62
2018-07-04T03:36:45.426Z,1010.57
2018-07-04T03:37:45.384Z,1010.61
2018-07-04T03:38:45.341Z,1010.60
2018-07-04T03:39:45.299Z,1010.58
2018-07-04T03:40:45.256Z,1010.62
2018-07-04T03:41:45.214Z,1010.60
2018-07-04T03:42:45.174Z,1010.64
2018-07-04T03:43:45.130Z,1010.64
2018-07-04T03:44:45.087Z,1010.59
2018-07-04T03:45:45.045Z,1010.58
2018-07-04T03:46:45.007Z,1010.59
2018-07-04T03:47:44.960Z,1010.53
2018-07-04T03:48:44.917Z,1010.55
2018-07-04T03:49:44.880Z,1010.52
2018-07-04T03:50:44.836Z,1010.49
2018-07-04T03:51:44.790Z,1010.49
2018-07-04T03:52:44.747Z,1010.48
2018-07-04T03:53:44.705Z,1010.50
2018-07-04T03:54:44.664Z,1010.49
2018-07-04T03:55:44.621Z,1010.52
2018-07-04T03:56:44.578Z,1010.50
2018-07-04T03:57:44.535Z,1010.47
2018-07-04T03:58:44.496Z,1010.50
2018-07-04T03:59:44.451Z,1010.48
2018-07-04T04:00:44.410Z,1010.45
2018-07-04T04:01:44.367Z,1010.45
2018-07-04T04:02:44.324Z,1010.47
2018-07-04T04:03:44.281Z,1010.43
2018-07-04T04:04:44.238Z,1010.40
2018-07-04T04:05:44.196Z,1010.47
2018-07-04T04:06:44.153Z,1010.46
2018-07-04T04:07:44.112Z,1010.45
2018-07-04T04:08:44.070Z,1010.49
2018-07-04T04:09:44.026Z,1010.47
2018-07-04T04:10:43.983Z,1010.49
2018-07-04T04:11:43.941Z,1010.50
2018-07-04T04:12:43.900Z,1010.50
2018-07-04T04:13:43.856Z,1010.53
2018-07-04T04:14:43.814Z,1010.54
2018-07-04T04:15:43.772Z,1010.56
2018-07-04T04:16:43.728Z,1010.55
2018-07-04T04:17:43.686Z,1010.53
2018-07-04T04:18:43.644Z,1010.62
2018-07-04T04:19:43.629Z,1010.61
2018-07-04T04:20:43.559Z,1010.60
2018-07-04T04:21:43.518Z,1010.56
2018-07-04T04:22:43.473Z,1010.57
2018-07-04T04:23:43.433Z,1010.63
2018-07-04T04:24:43.389Z,1010.58
2018-07-04T04:25:43.346Z,1010.62
2018-07-04T04:26:43.304Z,1010.60
2018-07-04T04:27:43.261Z,1010.59
2018-07-04T04:28:43.218Z,1010.60
2018-07-04T04:29:43.179Z,1010.63
2018-07-04T04:30:43.133Z,1010.62
2018-07-04T04:31:43.091Z,1010.67
2018-07-04T04:32:43.052Z,1010.61
2018-07-04T04:33:43.006Z,1010.63
2018-07-04T04:34:42.963Z,1010.62
2018-07-04T04:35:42.921Z,1010.65
2018-07-04T04:36:42.881Z,1010.65
2018-07-04T04:37:42.837Z,1010.61
2018-07-04T04:38:42.793Z,1010.63
2018-07-04T04:39:42.751Z,1010.64
2018-07-04T04:40:42.707Z,1010.62
2018-07-04T04:41:42.666Z,1010.61
2018-07-04T04:42:42.623Z,1010.64
2018-07-04T04:43:42.583Z,1010.62
2018-07-04T04:44:42.538Z,1010.63
2018-07-04T04:45:42.496Z,1010.62
2018-07-04T04:46:42.459Z,1010.61
2018-07-04T04:47:42.410Z,1010.62
2018-07-04T04:48:42.367Z,1010.62
2018-07-04T04:49:42.327Z,1010.63
2018-07-04T04:50:42.283Z,1010.65
2018-07-04T04:51:42.250Z,1010.68
2018-07-04T04:52:42.198Z,1010.68
2018-07-04T04:53:42.157Z,1010.63
2018-07-04T04:54:42.150Z,1010.66
2018-07-04T04:55:42.071Z,1010.64
2018-07-04T04:56:42.027Z,1010.64
2018-07-04T04:57:41.986Z,1010.64
2018-07-04T04:58:41.944Z,1010.63
2018-07-04T04:59:41.901Z,1010.64
2018-07-04T05:00:41.858Z,1010.65
2018-07-04T05:01:41.815Z,1010.66
2018-07-04T05:02:41.773Z,1010.66
2018-07-04T05:03:41.781Z,1010.67
2018-07-04T05:04:41.690Z,1010.66
2018-07-04T05:05:41.649Z,1010.65
2018-07-04T05:06:41.604Z,1010.66
2018-07-04T05:07:41.573Z,1010.69
2018-07-04T05:08:41.519Z,1010.68
2018-07-04T05:09:41.476Z,1010.68
2018-07-04T05:10:41.434Z,1010.68
2018-07-04T05:11:41.392Z,1010.68
2018-07-04T05:12:41.349Z,1010.70
2018-07-04T05:13:41.306Z,1010.67
2018-07-04T05:14:41.264Z,1010.66
2018-07-04T05:15:41.258Z,1010.66
2018-07-04T05:16:41.179Z,1010.66
2018-07-04T05:17:41.137Z,1010.72
2018-07-04T05:18:41.095Z,1010.66
2018-07-04T05:19:41.053Z,1010.69
2018-07-04T05:20:41.010Z,1010.74
2018-07-04T05:21:40.969Z,1010.74
2018-07-04T05:22:40.968Z,1010.73
2018-07-04T05:23:40.884Z,1010.74
2018-07-04T05:24:40.841Z,1010.76
2018-07-04T05:25:40.803Z,1010.76
2018-07-04T05:26:40.808Z,1010.77
2018-07-04T05:27:40.715Z,1010.75
2018-07-04T05:28:40.672Z,1010.76
2018-07-04T05:29:40.631Z,1010.77
2018-07-04T05:30:40.588Z,1010.75
2018-07-04T05:31:40.545Z,1010.74
2018-07-04T05:32:40.503Z,1010.73
2018-07-04T05:33:40.461Z,1010.77
2018-07-04T05:34:40.622Z,1010.70
2018-07-04T05:35:40.377Z,1010.71
2018-07-04T05:36:40.333Z,1010.73
2018-07-04T05:37:40.292Z,1010.74
2018-07-04T05:38:40.253Z,1010.74
2018-07-04T05:39:40.208Z,1010.75
2018-07-04T05:40:40.165Z,1010.77
2018-07-04T05:41:40.123Z,1010.70
2018-07-04T05:42:40.082Z,1010.74
2018-07-04T05:43:40.044Z,1010.73
2018-07-04T05:44:39.996Z,1010.74
2018-07-04T05:45:39.955Z,1010.76
2018-07-04T05:46:39.917Z,1010.74
2018-07-04T05:47:39.882Z,1010.72
2018-07-04T05:48:39.830Z,1010.76
2018-07-04T05:49:39.787Z,1010.76
2018-07-04T05:50:39.745Z,1010.76
2018-07-04T05:51:39.703Z,1010.78
2018-07-04T05:52:39.660Z,1010.77
2018-07-04T05:53:39.621Z,1010.75
2018-07-04T05:54:39.577Z,1010.76
2018-07-04T05:55:39.535Z,1010.72
2018-07-04T05:56:39.492Z,1010.70
2018-07-04T05:57:39.453Z,1010.71
2018-07-04T05:58:39.410Z,1010.72
2018-07-04T05:59:39.368Z,1010.69
2018-07-04T06:00:39.325Z,1010.73
2018-07-04T06:01:39.286Z,1010.75
2018-07-04T06:02:39.256Z,1010.73
2018-07-04T06:03:39.200Z,1010.77
2018-07-04T06:04:39.158Z,1010.77
2018-07-04T06:05:39.116Z,1010.75
2018-07-04T06:06:39.074Z,1010.75
2018-07-04T06:07:39.033Z,1010.76
2018-07-04T06:08:38.990Z,1010.76
2018-07-04T06:09:38.990Z,1010.78
2018-07-04T06:10:38.907Z,1010.76
2018-07-04T06:11:38.866Z,1010.79
2018-07-04T06:12:38.823Z,1010.76
2018-07-04T06:13:38.783Z,1010.77
2018-07-04T06:14:38.740Z,1011.43
2018-07-04T06:15:38.699Z,1011.43
2018-07-04T06:16:38.656Z,1011.44
2018-07-04T06:17:38.639Z,1011.46
2018-07-04T06:18:38.574Z,1011.42
2018-07-04T06:19:38.533Z,1011.43
2018-07-04T06:20:38.490Z,1011.43
2018-07-04T06:21:38.450Z,1011.52
2018-07-04T06:22:38.409Z,1011.68
2018-07-04T06:23:38.368Z,1011.77
2018-07-04T06:24:38.402Z,1011.75
2018-07-04T06:25:38.287Z,1011.68
2018-07-04T06:26:38.247Z,1011.65
2018-07-04T06:27:38.207Z,1011.69
2018-07-04T06:28:38.168Z,1011.78
2018-07-04T06:29:38.126Z,1011.82
2018-07-04T06:30:38.087Z,1011.93
2018-07-04T06:31:38.047Z,1011.97
2018-07-04T06:32:38.007Z,1011.97
2018-07-04T06:33:37.967Z,1012.00
2018-07-04T06:34:37.929Z,1012.01
2018-07-04T06:35:37.890Z,1011.96
2018-07-04T06:36:37.850Z,1011.89
2018-07-04T06:37:37.812Z,1011.88
2018-07-04T06:38:37.772Z,1011.80
2018-07-04T06:39:37.734Z,1011.76
2018-07-04T06:40:37.695Z,1011.88
2018-07-04T06:41:37.657Z,1011.99
2018-07-04T06:42:37.619Z,1011.99
2018-07-04T06:43:37.580Z,1012.03
2018-07-04T06:44:37.540Z,1012.17
2018-07-04T06:45:37.504Z,1012.17
2018-07-04T06:46:37.466Z,1012.14
2018-07-04T06:47:37.428Z,1012.18
2018-07-04T06:48:37.389Z,1012.06
2018-07-04T06:49:37.353Z,1010.85
2018-07-04T06:50:37.315Z,1010.89
2018-07-04T06:51:37.278Z,1010.90
2018-07-04T06:52:37.239Z,1010.91
2018-07-04T06:53:37.202Z,1010.93
2018-07-04T06:54:37.165Z,1010.90
2018-07-04T06:55:37.127Z,1010.88
2018-07-04T06:56:37.089Z,1010.89
2018-07-04T06:57:37.051Z,1010.86
2018-07-04T06:58:37.014Z,1010.86
2018-07-04T06:59:36.980Z,1010.87
2018-07-04T07:00:36.936Z,1010.88
2018-07-04T07:01:36.900Z,1010.87
2018-07-04T07:02:36.860Z,1010.86
2018-07-04T07:03:36.822Z,1010.85
2018-07-04T07:04:36.783Z,1010.88
2018-07-04T07:05:36.744Z,1010.89
2018-07-04T07:06:36.708Z,1010.85
2018-07-04T07:07:36.667Z,1010.88
2018-07-04T07:08:36.697Z,1010.84
2018-07-04T07:09:36.596Z,1010.86
2018-07-04T07:10:36.550Z,1010.89
2018-07-04T07:11:36.512Z,1010.92
2018-07-04T07:12:36.473Z,1010.93
2018-07-04T07:13:36.437Z,1010.89
2018-07-04T07:14:36.395Z,1010.94
2018-07-04T07:15:36.358Z,1010.96
2018-07-04T07:16:36.316Z,1010.98
2018-07-04T07:17:36.280Z,1010.99
2018-07-04T07:18:36.238Z,1010.94
2018-07-04T07:19:36.199Z,1010.97
2018-07-04T07:20:36.160Z,1010.96
2018-07-04T07:21:36.122Z,1010.96
2018-07-04T07:22:36.120Z,1010.96
2018-07-04T07:23:36.043Z,1011.20
2018-07-04T07:24:36.003Z,1011.38
2018-07-04T07:25:35.964Z,1011.55
2018-07-04T07:26:35.925Z,1011.64
2018-07-04T07:27:35.905Z,1011.70
2018-07-04T07:28:35.846Z,1011.74
2018-07-04T07:29:35.807Z,1011.75
2018-07-04T07:30:35.768Z,1011.78
2018-07-04T07:31:35.729Z,1011.77
2018-07-04T07:32:35.693Z,1011.77
2018-07-04T07:33:35.650Z,1011.71
2018-07-04T07:34:35.621Z,1011.36
2018-07-04T07:35:35.571Z,1010.97
2018-07-04T07:36:35.531Z,1010.88
2018-07-04T07:37:35.492Z,1010.94
2018-07-04T07:38:35.453Z,1010.91
2018-07-04T07:39:35.414Z,1010.89
2018-07-04T07:40:35.373Z,1010.89
2018-07-04T07:41:35.335Z,1010.91
2018-07-04T07:42:35.296Z,1010.96
2018-07-04T07:43:35.256Z,1010.93
2018-07-04T07:44:35.220Z,1010.92
2018-07-04T07:45:35.182Z,1010.94
2018-07-04T07:46:35.139Z,1010.91
2018-07-04T07:47:35.099Z,1010.94
2018-07-04T07:48:35.060Z,1010.89
2018-07-04T07:49:35.020Z,1010.90
2018-07-04T07:50:34.983Z,1010.87
2018-07-04T07:51:34.942Z,1010.86
2018-07-04T07:52:34.901Z,1010.85
2018-07-04T07:53:34.863Z,1010.82
2018-07-04T07:54:34.823Z,1010.83
2018-07-04T07:55:34.784Z,1010.80
2018-07-04T07:56:34.744Z,1010.82
2018-07-04T07:57:34.707Z,1010.80
2018-07-04T07:58:34.666Z,1010.78
2018-07-04T07:59:34.629Z,1010.77
2018-07-04T08:00:34.791Z,1010.73
2018-07-04T08:01:34.548Z,1010.75
2018-07-04T08:02:34.509Z,1010.76
2018-07-04T08:03:34.469Z,1010.77
2018-07-04T08:04:34.429Z,1010.76
2018-07-04T08:05:34.391Z,1010.75
2018-07-04T08:06:34.352Z,1010.72
2018-07-04T08:07:34.315Z,1010.75
2018-07-04T08:08:34.273Z,1010.74
2018-07-04T08:09:34.234Z,1010.75
2018-07-04T08:10:34.194Z,1010.76
2018-07-04T08:11:34.156Z,1010.71
2018-07-04T08:12:34.128Z,1010.71
2018-07-04T08:13:34.076Z,1010.72
2018-07-04T08:14:34.038Z,1010.72
2018-07-04T08:15:33.999Z,1010.72
2018-07-04T08:16:33.959Z,1010.73
2018-07-04T08:17:33.919Z,1010.70
2018-07-04T08:18:33.881Z,1010.67
2018-07-04T08:19:33.845Z,1010.66
2018-07-04T08:20:33.854Z,1010.67
2018-07-04T08:21:33.767Z,1010.62
2018-07-04T08:22:33.725Z,1010.58
2018-07-04T08:24:33.645Z,1010.61
2018-07-04T08:25:33.607Z,1010.62
2018-07-04T08:26:33.569Z,1010.62
2018-07-04T08:27:33.529Z,1010.60
2018-07-04T08:28:33.489Z,1010.61
2018-07-04T08:29:33.449Z,1010.61
2018-07-04T08:30:33.412Z,1010.58
2018-07-04T08:31:33.373Z,1010.59
2018-07-04T08:32:33.332Z,1010.59
2018-07-04T08:33:33.318Z,1010.57
2018-07-04T08:34:33.255Z,1010.60
2018-07-04T08:35:33.218Z,1010.61
2018-07-04T08:36:33.176Z,1010.63
2018-07-04T08:37:33.138Z,1010.63
2018-07-04T08:38:33.099Z,1010.63
2018-07-04T08:39:33.060Z,1010.63
2018-07-04T08:40:33.021Z,1010.63
2018-07-04T08:41:32.982Z,1010.66
2018-07-04T08:42:32.943Z,1010.67
2018-07-04T08:43:32.905Z,1010.67
2018-07-04T08:44:32.865Z,1010.71
2018-07-04T08:45:32.828Z,1010.69
2018-07-04T08:46:32.788Z,1010.68
2018-07-04T08:47:32.750Z,1010.69
2018-07-04T08:48:32.711Z,1010.71
2018-07-04T08:49:32.671Z,1010.71
2018-07-04T08:50:32.644Z,1010.69
2018-07-04T08:51:32.595Z,1010.73
2018-07-04T08:52:32.609Z,1010.77
2018-07-04T08:53:32.516Z,1010.78
2018-07-04T08:54:32.478Z,1010.83
2018-07-04T08:55:32.440Z,1010.87
2018-07-04T08:56:32.400Z,1010.92
2018-07-04T08:57:32.362Z,1010.95
2018-07-04T08:58:32.343Z,1010.94
2018-07-04T08:59:32.285Z,1010.92
2018-07-04T09:00:32.245Z,1010.94
2018-07-04T09:01:32.208Z,1010.96
2018-07-04T09:02:32.169Z,1010.95
2018-07-04T09:03:32.137Z,1010.91
2018-07-04T09:04:32.092Z,1010.90
2018-07-04T09:05:32.089Z,1010.93
2018-07-04T09:06:32.016Z,1010.89
2018-07-04T09:07:31.977Z,1010.88
2018-07-04T09:08:31.937Z,1010.85
2018-07-04T09:09:31.949Z,1010.83
2018-07-04T09:10:31.861Z,1010.89
2018-07-04T09:11:31.839Z,1010.87
2018-07-04T09:12:31.784Z,1010.97
2018-07-04T09:13:31.746Z,1010.95
2018-07-04T09:14:31.708Z,1010.92
2018-07-04T09:15:31.670Z,1010.87
2018-07-04T09:16:31.630Z,1010.80
2018-07-04T09:17:31.593Z,1010.72
2018-07-04T09:18:31.563Z,1010.69
2018-07-04T09:19:31.517Z,1010.67
2018-07-04T09:20:31.479Z,1010.63
2018-07-04T09:21:31.440Z,1010.61
2018-07-04T09:22:31.400Z,1010.60
2018-07-04T09:23:31.364Z,1010.59
2018-07-04T09:24:31.334Z,1010.60
2018-07-04T09:25:31.288Z,1010.53
2018-07-04T09:26:31.249Z,1010.57
2018-07-04T09:27:31.211Z,1010.58
2018-07-04T09:28:31.171Z,1010.57
2018-07-04T09:29:31.138Z,1010.57
2018-07-04T09:30:31.096Z,1010.58
2018-07-04T09:31:31.058Z,1010.58
2018-07-04T09:32:31.034Z,1010.54
2018-07-04T09:33:30.981Z,1010.50
2018-07-04T09:34:30.944Z,1010.47
2018-07-04T09:35:30.905Z,1010.45
2018-07-04T09:36:30.866Z,1010.46
2018-07-04T09:37:30.829Z,1010.41
2018-07-04T09:38:30.862Z,1010.37
2018-07-04T09:39:30.752Z,1010.36
2018-07-04T09:40:30.713Z,1010.39
2018-07-04T09:41:30.675Z,1010.34
2018-07-04T09:42:30.637Z,1010.35
2018-07-04T09:43:30.599Z,1010.32
2018-07-04T09:44:30.563Z,1010.33
2018-07-04T09:45:30.522Z,1010.31
2018-07-04T09:46:30.484Z,1010.26
2018-07-04T09:47:30.450Z,1010.24
2018-07-04T09:48:30.408Z,1010.23
2018-07-04T09:49:30.373Z,1010.20
2018-07-04T09:50:30.331Z,1010.23
2018-07-04T09:51:30.292Z,1010.16
2018-07-04T09:52:30.258Z,1010.16
2018-07-04T09:53:30.216Z,1010.20
2018-07-04T09:54:30.178Z,1010.16
2018-07-04T09:55:30.139Z,1010.17
2018-07-04T09:56:30.100Z,1010.16
2018-07-04T09:57:30.062Z,1010.17
2018-07-04T09:58:30.025Z,1010.12
2018-07-04T09:59:29.985Z,1010.17
2018-07-04T10:00:29.948Z,1010.16
2018-07-04T10:01:29.907Z,1010.15
2018-07-04T10:02:29.868Z,1010.15
2018-07-04T10:03:29.830Z,1010.16
2018-07-04T10:04:29.792Z,1010.17
2018-07-04T10:05:29.755Z,1010.10
2018-07-04T10:06:29.714Z,1010.10
2018-07-04T10:07:29.676Z,1010.12
2018-07-04T10:08:29.635Z,1010.11
2018-07-04T10:09:29.597Z,1010.06
2018-07-04T10:10:29.559Z,1010.12
2018-07-04T10:11:29.520Z,1010.11
2018-07-04T10:12:29.484Z,1010.10
2018-07-04T10:13:29.441Z,1010.05
2018-07-04T10:14:29.403Z,1010.06
2018-07-04T10:15:29.368Z,1010.07
2018-07-04T10:16:29.324Z,1010.05
2018-07-04T10:17:29.286Z,1010.06
2018-07-04T10:18:29.250Z,1010.07
2018-07-04T10:19:29.208Z,1010.09
2018-07-04T10:20:29.169Z,1010.08
2018-07-04T10:21:29.129Z,1010.07
2018-07-04T10:22:29.090Z,1010.06
2018-07-04T10:23:29.051Z,1010.05
2018-07-04T10:24:29.012Z,1010.05
2018-07-04T10:25:28.972Z,1010.05
2018-07-04T10:26:28.933Z,1010.04
2018-07-04T10:27:28.894Z,1010.06
2018-07-04T10:28:28.854Z,1010.01
2018-07-04T10:29:28.817Z,1010.01
2018-07-04T10:30:28.776Z,1010.03
2018-07-04T10:31:28.738Z,1010.00
2018-07-04T10:32:28.697Z,1009.97
2018-07-04T10:33:28.661Z,1009.96
2018-07-04T10:34:28.659Z,1009.99
2018-07-04T10:35:28.581Z,1010.01
2018-07-04T10:36:28.540Z,1010.00
2018-07-04T10:37:28.501Z,1009.97
2018-07-04T10:38:28.462Z,1009.96
2018-07-04T10:39:28.423Z,1009.93
2018-07-04T10:40:28.384Z,1009.94
2018-07-04T10:41:28.344Z,1009.90
2018-07-04T10:42:28.304Z,1009.88
2018-07-04T10:43:28.265Z,1009.90
2018-07-04T10:44:28.225Z,1009.88
2018-07-04T10:45:28.186Z,1009.89
2018-07-04T10:46:28.147Z,1009.87
2018-07-04T10:47:28.107Z,1009.89
2018-07-04T10:48:28.068Z,1009.86
2018-07-04T10:49:28.028Z,1009.85
2018-07-04T10:50:27.989Z,1009.84
2018-07-04T10:51:27.949Z,1009.86
2018-07-04T10:52:27.916Z,1009.81
2018-07-04T10:53:27.870Z,1009.80
2018-07-04T10:54:27.830Z,1009.81
2018-07-04T10:55:27.793Z,1009.83
2018-07-04T10:56:27.751Z,1009.80
2018-07-04T10:57:27.711Z,1009.80
2018-07-04T10:58:27.695Z,1009.77
2018-07-04T10:59:27.633Z,1009.78
2018-07-04T11:00:27.596Z,1009.76
2018-07-04T11:01:27.553Z,1009.76
2018-07-04T11:02:27.514Z,1009.76
2018-07-04T11:03:27.475Z,1009.74
2018-07-04T11:04:27.441Z,1009.73
2018-07-04T11:05:27.395Z,1009.72
2018-07-04T11:06:27.359Z,1009.69
2018-07-04T11:07:27.317Z,1009.70
2018-07-04T11:08:27.277Z,1009.71
2018-07-04T11:09:27.237Z,1009.71
2018-07-04T11:10:27.199Z,1009.69
2018-07-04T11:11:27.189Z,1009.68
2018-07-04T11:12:27.117Z,1009.64
2018-07-04T11:13:27.080Z,1009.65
2018-07-04T11:14:27.039Z,1009.63
2018-07-04T11:15:26.999Z,1009.61
2018-07-04T11:16:26.959Z,1009.64
2018-07-04T11:17:26.924Z,1009.60
2018-07-04T11:18:26.881Z,1009.62
2018-07-04T11:19:26.840Z,1009.62
2018-07-04T11:20:26.800Z,1009.64
2018-07-04T11:21:26.761Z,1009.65
2018-07-04T11:22:26.799Z,1009.61
2018-07-04T11:23:26.682Z,1009.61
2018-07-04T11:24:26.642Z,1009.61
2018-07-04T11:25:26.602Z,1009.61
2018-07-04T11:26:26.563Z,1009.55
2018-07-04T11:27:26.522Z,1009.58
2018-07-04T11:28:26.540Z,1009.54
2018-07-04T11:29:26.445Z,1009.56
2018-07-04T11:30:26.404Z,1009.59
2018-07-04T11:31:26.364Z,1009.55
2018-07-04T11:32:26.573Z,1009.47
2018-07-04T11:33:26.285Z,1009.49
2018-07-04T11:34:26.245Z,1009.50
2018-07-04T11:35:26.205Z,1009.50
2018-07-04T11:36:26.165Z,1009.46
2018-07-04T11:37:26.126Z,1009.48
2018-07-04T11:38:26.106Z,1009.45
2018-07-04T11:39:26.047Z,1009.44
2018-07-04T11:40:26.006Z,1009.43
2018-07-04T11:41:25.966Z,1009.42
2018-07-04T11:42:25.927Z,1009.41
2018-07-04T11:43:25.894Z,1009.41
2018-07-04T11:44:25.847Z,1009.45
2018-07-04T11:45:25.808Z,1009.41
2018-07-04T11:46:25.771Z,1009.41
2018-07-04T11:47:25.728Z,1009.41
2018-07-04T11:48:25.713Z,1009.42
2018-07-04T11:49:25.649Z,1009.29
2018-07-04T11:50:25.612Z,1009.39
2018-07-04T11:51:25.570Z,1009.38
2018-07-04T11:52:25.532Z,1009.41
2018-07-04T11:53:25.489Z,1009.35
2018-07-04T11:54:25.450Z,1009.31
2018-07-04T11:55:25.410Z,1009.32
2018-07-04T11:56:25.424Z,1009.30
2018-07-04T11:57:25.330Z,1009.31
2018-07-04T11:58:25.291Z,1009.31
2018-07-04T11:59:25.251Z,1009.31
2018-07-04T12:00:25.210Z,1009.33
2018-07-04T12:01:25.170Z,1009.32
2018-07-04T12:02:25.132Z,1009.29
2018-07-04T12:03:25.092Z,1009.31
2018-07-04T12:04:25.052Z,1009.32
2018-07-04T12:05:25.100Z,1009.29
2018-07-04T12:06:24.973Z,1009.31
2018-07-04T12:07:24.932Z,1009.32
2018-07-04T12:08:24.892Z,1009.33
2018-07-04T12:09:24.856Z,1009.33